Time;durP1;ratioP1;P1;durP2;ratioP2;P2;SDS_P1;SDS_P2;PMS_P1;PMS_P2;Temp;Humidity;BMP_temperature;BMP_pressure;BME280_temperature;BME280_humidity;BME280_pressure;Samples;Min_cycle;Max_cycle;Signal;HPM_P1;HPM_P2
2023/06/12 00:02:09;;;;;;;4.07;3.10;;;;;;;16.80;48.35;100896.00;5116934;27;20213;-63
2023/06/12 00:04:37;;;;;;;5.18;3.50;;;;;;;16.73;48.04;100903.06;5127553;27;20191;-62
2023/06/12 00:07:06;;;;;;;6.45;3.42;;;;;;;16.65;47.51;100892.84;5128352;27;20719;-66
2023/06/12 00:09:35;;;;;;;6.25;3.60;;;;;;;16.61;47.31;100892.94;5127892;27;20598;-63
2023/06/12 00:12:04;;;;;;;7.25;3.53;;;;;;;16.56;47.30;100900.84;5131235;27;20195;-61
2023/06/12 00:14:32;;;;;;;5.35;3.83;;;;;;;16.51;46.92;100900.09;5131159;27;20224;-61
2023/06/12 00:17:00;;;;;;;5.53;3.20;;;;;;;16.46;46.29;100898.47;5123298;27;20199;-63
2023/06/12 00:19:28;;;;;;;6.97;3.25;;;;;;;16.36;46.32;100888.28;5128002;27;20642;-64
2023/06/12 00:21:56;;;;;;;3.97;2.92;;;;;;;16.31;45.58;100889.25;5128490;27;20211;-63
2023/06/12 00:24:24;;;;;;;4.97;2.53;;;;;;;16.24;45.21;100892.88;5128107;27;20242;-61
2023/06/12 00:26:54;;;;;;;4.70;2.47;;;;;;;16.18;45.06;100893.88;5133923;27;20207;-60
2023/06/12 00:29:22;;;;;;;2.92;2.63;;;;;;;16.13;44.23;100896.59;5132103;27;20226;-62
2023/06/12 00:31:50;;;;;;;3.95;2.70;;;;;;;16.06;44.21;100894.13;5132352;27;20207;-61
2023/06/12 00:34:18;;;;;;;4.20;2.70;;;;;;;16.03;44.38;100889.84;5128617;27;20658;-62
2023/06/12 00:36:47;;;;;;;7.70;3.30;;;;;;;15.97;44.49;100899.50;5135068;27;20210;-63
2023/06/12 00:39:15;;;;;;;5.13;2.75;;;;;;;15.92;44.21;100894.41;5124721;27;20626;-62
2023/06/12 00:41:43;;;;;;;5.35;2.60;;;;;;;15.91;44.09;100893.56;5134581;27;20620;-63
2023/06/12 00:44:12;;;;;;;6.63;3.35;;;;;;;15.90;44.56;100899.63;5130858;27;20569;-62
2023/06/12 00:46:40;;;;;;;4.55;2.38;;;;;;;15.86;44.15;100890.19;5132851;27;20582;-62
2023/06/12 00:49:08;;;;;;;4.93;2.83;;;;;;;15.82;44.57;100900.66;5128420;27;20298;-62
2023/06/12 00:51:36;;;;;;;7.07;2.97;;;;;;;15.77;44.28;100897.31;5134339;27;20592;-62
2023/06/12 00:54:04;;;;;;;5.03;2.42;;;;;;;15.73;44.79;100901.72;5132839;27;20241;-63
2023/06/12 00:56:32;;;;;;;4.88;2.70;;;;;;;15.68;44.43;100899.22;5132805;27;20573;-63
2023/06/12 00:59:00;;;;;;;6.07;2.78;;;;;;;15.66;44.80;100905.31;5123090;27;20247;-61
2023/06/12 01:01:30;;;;;;;3.88;2.80;;;;;;;15.61;44.79;100904.50;5123238;27;20868;-62
2023/06/12 01:03:58;;;;;;;3.47;2.35;;;;;;;15.58;44.66;100899.38;5124133;27;20607;-63
2023/06/12 01:06:34;;;;;;;5.13;2.97;;;;;;;15.55;44.66;100897.69;5134434;27;20255;-61
2023/06/12 01:09:10;;;;;;;3.35;2.85;;;;;;;15.53;44.91;100901.19;5131563;27;20219;-64
2023/06/12 01:11:40;;;;;;;10.40;2.95;;;;;;;15.51;44.72;100905.56;5123338;27;20202;-61
2023/06/12 01:14:08;;;;;;;4.18;2.53;;;;;;;15.49;44.77;100896.94;5133869;27;20637;-61
2023/06/12 01:16:40;;;;;;;3.88;2.70;;;;;;;15.46;44.93;100893.53;5127307;27;20199;-61
2023/06/12 01:19:09;;;;;;;3.85;2.65;;;;;;;15.44;44.81;100897.03;5130269;27;20613;-61
2023/06/12 01:21:40;;;;;;;4.95;2.42;;;;;;;15.44;45.12;100899.63;5129403;27;20202;-62
2023/06/12 01:24:30;;;;;;;2.70;2.35;;;;;;;15.35;44.76;100890.22;5133159;27;20290;-61
2023/06/12 01:27:15;;;;;;;4.25;2.63;;;;;;;15.35;45.00;100903.22;5125322;27;20199;-62
2023/06/12 01:30:20;;;;;;;4.55;3.08;;;;;;;15.33;44.41;100911.94;5130455;27;20245;-61
2023/06/12 01:32:51;;;;;;;6.28;2.90;;;;;;;15.21;44.81;100913.84;5122186;27;20209;-61
2023/06/12 01:35:23;;;;;;;5.35;2.58;;;;;;;15.14;44.17;100907.06;5126780;27;20226;-63
2023/06/12 01:37:56;;;;;;;4.32;2.95;;;;;;;15.10;44.39;100909.72;5135546;27;20207;-61
2023/06/12 01:40:28;;;;;;;4.00;2.77;;;;;;;15.07;44.75;100907.19;5134091;27;20195;-62
2023/06/12 01:42:57;;;;;;;2.67;2.20;;;;;;;15.05;44.44;100907.19;5136603;27;20207;-60
2023/06/12 01:45:25;;;;;;;7.07;2.47;;;;;;;15.00;44.27;100913.34;5134145;27;20198;-60
2023/06/12 01:47:55;;;;;;;4.30;2.45;;;;;;;14.92;44.55;100919.50;5132327;27;20211;-62
2023/06/12 01:50:23;;;;;;;7.88;2.85;;;;;;;14.85;44.62;100907.50;5129496;27;20253;-63
2023/06/12 01:52:51;;;;;;;4.03;2.30;;;;;;;14.84;44.64;100913.59;5137438;27;20584;-61
2023/06/12 01:55:21;;;;;;;4.15;2.78;;;;;;;14.85;45.24;100914.44;5133724;27;20226;-61
2023/06/12 01:57:50;;;;;;;4.20;2.65;;;;;;;14.82;45.27;100914.50;5134682;27;20294;-62
2023/06/12 02:00:18;;;;;;;3.08;2.42;;;;;;;14.77;45.52;100911.13;5132783;27;20570;-63
2023/06/12 02:02:47;;;;;;;5.72;3.13;;;;;;;14.71;45.62;100912.91;5137088;27;20203;-61
2023/06/12 02:05:16;;;;;;;3.97;2.40;;;;;;;14.68;45.73;100922.47;5131792;27;20203;-61
2023/06/12 02:07:44;;;;;;;3.53;2.28;;;;;;;14.63;45.45;100919.94;5131213;27;20225;-63
2023/06/12 02:10:12;;;;;;;5.63;2.73;;;;;;;14.60;45.52;100919.97;5126748;27;20212;-62
2023/06/12 02:12:43;;;;;;;2.70;2.40;;;;;;;14.53;45.46;100920.09;5132963;27;20333;-62
2023/06/12 02:15:12;;;;;;;3.37;2.70;;;;;;;14.50;45.67;100919.25;5127533;27;20556;-61
2023/06/12 02:17:41;;;;;;;5.10;2.50;;;;;;;14.47;45.89;100919.28;5133498;27;20196;-62
2023/06/12 02:20:09;;;;;;;3.08;2.67;;;;;;;14.47;45.72;100927.06;5131428;27;20509;-61
2023/06/12 02:22:39;;;;;;;3.83;2.33;;;;;;;14.47;45.77;100919.28;5128439;27;20241;-62
2023/06/12 02:25:08;;;;;;;2.53;2.23;;;;;;;14.45;46.00;100921.03;5131127;27;20331;-62
2023/06/12 02:27:36;;;;;;;6.82;2.40;;;;;;;14.45;45.92;100918.44;5132473;27;20256;-61
2023/06/12 02:30:04;;;;;;;6.40;2.35;;;;;;;14.48;45.97;100920.97;5134642;27;20222;-62
2023/06/12 02:32:35;;;;;;;3.30;2.67;;;;;;;14.47;45.42;100919.28;5129492;27;20218;-62
2023/06/12 02:35:10;;;;;;;3.07;2.23;;;;;;;14.47;45.75;100923.59;5127199;27;20647;-63
2023/06/12 02:37:40;;;;;;;4.33;2.70;;;;;;;14.47;45.37;100926.16;5132417;27;20199;-61
2023/06/12 02:40:09;;;;;;;6.30;2.70;;;;;;;14.43;45.58;100927.97;5129426;27;20278;-62
2023/06/12 02:42:37;;;;;;;5.68;2.10;;;;;;;14.41;45.34;100928.88;5128847;27;20607;-63
2023/06/12 02:45:06;;;;;;;5.25;2.40;;;;;;;14.27;46.04;100922.13;5135884;27;20264;-61
2023/06/12 02:47:34;;;;;;;8.18;2.28;;;;;;;14.35;45.86;100934.97;5130214;27;20285;-62
2023/06/12 02:50:02;;;;;;;5.93;2.43;;;;;;;14.39;46.13;100940.97;5134798;27;20667;-62
2023/06/12 02:52:31;;;;;;;4.53;2.60;;;;;;;14.40;46.38;100940.13;5132065;27;20248;-64
2023/06/12 02:55:00;;;;;;;3.72;2.70;;;;;;;14.37;46.21;100933.22;5126451;27;20209;-61
2023/06/12 02:57:28;;;;;;;5.55;2.92;;;;;;;14.38;46.46;100945.31;5132868;27;20200;-62
2023/06/12 02:59:56;;;;;;;5.22;3.10;;;;;;;14.35;46.84;100937.56;5133734;27;20222;-61
2023/06/12 03:02:24;;;;;;;3.70;2.80;;;;;;;14.30;47.03;100936.78;5130994;27;20204;-60
2023/06/12 03:04:53;;;;;;;3.83;3.05;;;;;;;14.24;46.88;100931.66;5129575;27;20650;-62
2023/06/12 03:07:21;;;;;;;3.58;2.65;;;;;;;14.20;46.44;100935.16;5129810;27;20211;-62
2023/06/12 03:09:49;;;;;;;3.30;2.90;;;;;;;14.14;46.50;100930.06;5135946;27;20278;-61
2023/06/12 03:12:19;;;;;;;4.57;2.80;;;;;;;14.12;46.57;100937.84;5127894;27;20203;-62
2023/06/12 03:14:47;;;;;;;4.70;3.00;;;;;;;14.12;46.52;100939.59;5124170;27;20197;-63
2023/06/12 03:17:15;;;;;;;4.10;3.23;;;;;;;14.10;46.95;100943.94;5128603;27;20203;-64
2023/06/12 03:19:44;;;;;;;6.73;2.73;;;;;;;14.11;46.85;100946.53;5135611;27;20286;-62
2023/06/12 03:22:12;;;;;;;7.47;3.10;;;;;;;14.10;46.52;100949.09;5135013;27;20236;-62
2023/06/12 03:24:40;;;;;;;6.37;3.17;;;;;;;14.10;47.07;100952.59;5131180;27;20231;-62
2023/06/12 03:27:09;;;;;;;7.03;3.50;;;;;;;14.12;47.03;100950.81;5127205;27;20207;-60
2023/06/12 03:29:39;;;;;;;4.35;3.30;;;;;;;14.13;47.12;100955.13;5131465;27;20230;-61
2023/06/12 03:32:08;;;;;;;6.75;3.22;;;;;;;14.10;46.68;100957.78;5128091;27;20214;-62
2023/06/12 03:34:36;;;;;;;4.10;3.70;;;;;;;14.09;46.76;100958.63;5130083;27;20210;-62
2023/06/12 03:37:04;;;;;;;6.97;3.70;;;;;;;14.04;46.99;100964.75;5129497;27;20222;-62
2023/06/12 03:39:32;;;;;;;5.60;3.53;;;;;;;13.99;47.08;100965.66;5128462;27;20199;-62
2023/06/12 03:42:00;;;;;;;5.90;3.60;;;;;;;13.98;46.76;100956.16;5127428;27;20203;-63
2023/06/12 03:44:29;;;;;;;5.60;3.47;;;;;;;13.98;47.19;100960.47;5128075;27;20196;-61
2023/06/12 03:46:58;;;;;;;5.80;3.45;;;;;;;13.97;47.03;100967.41;5127117;27;20229;-62
2023/06/12 03:49:26;;;;;;;6.30;3.60;;;;;;;13.98;46.77;100960.47;5122926;27;20204;-61
2023/06/12 03:51:55;;;;;;;5.63;3.07;;;;;;;14.00;47.03;100962.19;5123161;27;20859;-61
2023/06/12 03:54:23;;;;;;;5.90;3.00;;;;;;;13.98;46.50;100970.84;5127372;27;20264;-62
2023/06/12 03:56:51;;;;;;;3.47;3.17;;;;;;;13.94;46.58;100962.25;5132464;27;20623;-61
2023/06/12 03:59:19;;;;;;;8.80;3.20;;;;;;;13.94;47.13;100963.97;5128165;27;20207;-61
2023/06/12 04:01:48;;;;;;;7.00;3.60;;;;;;;13.97;46.51;100958.78;5124141;27;20256;-62
2023/06/12 04:04:18;;;;;;;5.77;3.40;;;;;;;14.01;47.03;100966.47;5126097;27;20199;-61
2023/06/12 04:06:46;;;;;;;6.93;3.20;;;;;;;14.07;46.51;100959.53;5128256;27;20202;-62
2023/06/12 04:09:15;;;;;;;3.43;2.80;;;;;;;14.07;46.26;100957.81;5134096;27;20215;-62
2023/06/12 04:11:43;;;;;;;4.23;3.03;;;;;;;14.05;46.90;100956.94;5125697;27;20207;-62
2023/06/12 04:14:11;;;;;;;5.33;3.17;;;;;;;14.11;47.10;100961.22;5126893;27;20666;-63
2023/06/12 04:16:39;;;;;;;5.53;3.20;;;;;;;14.18;46.62;100970.63;5132716;27;20357;-63
2023/06/12 04:19:08;;;;;;;6.37;2.50;;;;;;;14.27;46.81;100971.38;5126964;27;20230;-61
2023/06/12 04:21:38;;;;;;;7.27;3.47;;;;;;;14.38;46.51;100962.59;5126239;27;20203;-61
2023/06/12 04:24:15;;;;;;;5.23;3.10;;;;;;;14.51;46.39;100961.63;5124533;27;20948;-61
2023/06/12 04:26:46;;;;;;;4.30;2.80;;;;;;;14.63;46.37;100964.03;5127586;27;20199;-62
2023/06/12 04:29:15;;;;;;;4.80;2.80;;;;;;;14.80;46.37;100963.81;5129726;27;20294;-63
2023/06/12 04:31:43;;;;;;;4.60;2.70;;;;;;;14.98;45.96;100958.38;5128746;27;20236;-61
2023/06/12 04:34:15;;;;;;;3.43;2.93;;;;;;;15.14;45.31;100969.34;5120746;27;20376;-62
2023/06/12 04:36:45;;;;;;;8.60;2.55;;;;;;;15.29;45.65;100963.06;5128197;27;20279;-61
2023/06/12 04:39:13;;;;;;;3.33;2.40;;;;;;;15.44;44.71;100957.59;5124269;27;20650;-62
2023/06/12 04:41:42;;;;;;;2.93;2.57;;;;;;;15.62;44.56;100965.97;5122651;27;20233;-63
2023/06/12 04:44:11;;;;;;;4.93;2.70;;;;;;;15.74;44.65;100962.34;5125635;27;20721;-63
2023/06/12 04:46:39;;;;;;;2.65;2.40;;;;;;;15.91;44.55;100965.47;5119143;27;20541;-64
2023/06/12 04:49:08;;;;;;;3.15;2.55;;;;;;;16.04;44.08;100963.50;5125111;27;20293;-64
2023/06/12 04:51:38;;;;;;;3.83;2.28;;;;;;;16.22;43.75;100970.94;5129467;27;20260;-63
2023/06/12 04:54:09;;;;;;;5.25;2.70;;;;;;;16.37;43.51;100967.16;5126756;27;20215;-64
2023/06/12 04:56:40;;;;;;;3.85;2.60;;;;;;;16.49;43.29;100966.03;5128941;27;20203;-63
2023/06/12 04:59:10;;;;;;;4.40;2.40;;;;;;;16.63;43.04;100969.22;5128055;27;20209;-64
2023/06/12 05:01:39;;;;;;;3.40;2.00;;;;;;;16.81;42.53;100967.97;5130161;27;20718;-63
2023/06/12 05:04:07;;;;;;;4.13;2.97;;;;;;;16.95;42.66;100975.50;5126361;27;20626;-63
2023/06/12 05:06:39;;;;;;;4.43;2.65;;;;;;;17.13;42.29;100965.50;5123261;27;20203;-64
2023/06/12 05:09:08;;;;;;;4.18;2.60;;;;;;;17.35;42.01;100960.63;5124023;27;20346;-63
2023/06/12 05:11:36;;;;;;;6.60;3.22;;;;;;;17.65;41.60;100957.28;5127375;27;20214;-62
2023/06/12 05:14:04;;;;;;;2.78;2.30;;;;;;;18.05;41.01;100957.94;5123693;27;20203;-63
2023/06/12 05:16:32;;;;;;;2.47;2.20;;;;;;;18.38;40.17;100964.84;5122723;27;20199;-63
2023/06/12 05:19:00;;;;;;;5.30;2.60;;;;;;;18.68;39.61;100956.09;5124265;27;20199;-64
2023/06/12 05:21:28;;;;;;;4.30;2.75;;;;;;;19.11;38.96;100961.75;5129765;27;20281;-63
2023/06/12 05:23:56;;;;;;;7.15;2.90;;;;;;;19.69;37.96;100955.47;5128250;27;20207;-64
2023/06/12 05:26:27;;;;;;;7.43;2.22;;;;;;;20.42;36.46;100951.94;5122974;27;20214;-63
2023/06/12 05:28:55;;;;;;;2.47;2.28;;;;;;;20.91;35.64;100938.72;5129398;27;20681;-63
2023/06/12 05:31:23;;;;;;;6.53;2.13;;;;;;;21.33;34.86;100941.41;5125481;27;20238;-64
2023/06/12 05:33:51;;;;;;;4.65;2.80;;;;;;;21.86;34.58;100940.84;5122330;27;20203;-65
2023/06/12 05:36:19;;;;;;;3.28;2.10;;;;;;;22.38;33.48;100933.28;5121714;27;20207;-65
2023/06/12 05:38:48;;;;;;;6.15;2.75;;;;;;;22.96;32.38;100942.81;5125128;27;20290;-63
2023/06/12 05:41:16;;;;;;;2.70;2.17;;;;;;;23.74;31.05;100931.00;5124733;27;20210;-63
2023/06/12 05:43:46;;;;;;;6.13;2.30;;;;;;;24.96;29.00;100934.00;5128300;27;20191;-62
2023/06/12 05:46:15;;;;;;;7.60;2.85;;;;;;;26.07;27.56;100925.69;5126927;27;20588;-64
2023/06/12 05:48:43;;;;;;;13.93;3.25;;;;;;;27.76;25.99;100928.72;5129306;27;20566;-63
2023/06/12 05:51:11;;;;;;;7.00;2.42;;;;;;;29.57;23.04;100928.78;5124614;27;20621;-62
2023/06/12 05:53:39;;;;;;;2.50;2.08;;;;;;;30.72;21.75;100919.66;5124666;27;20221;-63
2023/06/12 05:56:07;;;;;;;4.70;2.15;;;;;;;31.69;20.47;100913.22;5127590;27;20571;-64
2023/06/12 05:58:37;;;;;;;5.00;2.40;;;;;;;32.87;18.86;100923.22;5123846;27;20247;-62
2023/06/12 06:01:09;;;;;;;7.25;2.53;;;;;;;33.85;18.02;100922.09;5126230;27;20233;-63
2023/06/12 06:03:42;;;;;;;7.95;2.80;;;;;;;34.72;17.09;100921.59;5127469;27;20626;-63
2023/06/12 06:06:12;;;;;;;5.35;2.03;;;;;;;35.15;16.59;100921.84;5130229;27;20339;-64
2023/06/12 06:08:41;;;;;;;4.15;2.33;;;;;;;35.62;16.31;100925.03;5124432;27;20202;-62
2023/06/12 06:11:09;;;;;;;5.35;2.35;;;;;;;36.37;15.38;100924.31;5133648;27;21162;-63
2023/06/12 06:13:37;;;;;;;8.38;2.65;;;;;;;36.78;15.01;100921.72;5136975;27;20206;-63
2023/06/12 06:16:07;;;;;;;4.97;2.30;;;;;;;37.12;14.78;100926.97;5114626;27;20556;-61
2023/06/12 06:18:37;;;;;;;4.57;2.17;;;;;;;37.57;14.59;100920.19;5128914;27;20226;-63
2023/06/12 06:21:05;;;;;;;6.25;2.13;;;;;;;38.51;13.94;100921.13;5133299;27;20199;-62
2023/06/12 06:23:34;;;;;;;4.32;2.33;;;;;;;39.54;13.07;100917.88;5125485;27;20206;-63
2023/06/12 06:26:03;;;;;;;7.57;2.60;;;;;;;40.33;12.33;100918.94;5128968;27;20260;-64
2023/06/12 06:28:31;;;;;;;3.70;1.88;;;;;;;40.85;12.06;100922.34;5136540;27;20202;-62
2023/06/12 06:31:00;;;;;;;6.57;2.00;;;;;;;40.29;11.77;100920.34;5126955;27;20294;-62
2023/06/12 06:33:29;;;;;;;5.93;2.17;;;;;;;39.77;11.87;100915.97;5132357;27;20290;-63
2023/06/12 06:35:57;;;;;;;5.88;2.25;;;;;;;40.16;12.16;100922.06;5124016;27;20199;-64
2023/06/12 06:38:25;;;;;;;4.68;2.10;;;;;;;40.11;12.10;100921.75;5130963;27;20206;-63
2023/06/12 06:40:54;;;;;;;8.07;1.92;;;;;;;39.40;12.74;100927.63;5127783;27;20207;-64
2023/06/12 06:43:22;;;;;;;6.55;1.80;;;;;;;38.94;13.01;100929.59;5129285;27;20202;-62
2023/06/12 06:45:50;;;;;;;2.63;1.63;;;;;;;38.83;12.24;100912.81;5132635;27;20204;-62
2023/06/12 06:48:19;;;;;;;3.35;1.80;;;;;;;39.28;11.50;100924.56;5132860;27;20977;-62
2023/06/12 06:50:48;;;;;;;3.20;1.80;;;;;;;39.14;11.92;100926.19;5128604;27;20966;-63
2023/06/12 06:53:16;;;;;;;2.38;2.13;;;;;;;38.47;12.70;100925.19;5134996;27;20226;-63
2023/06/12 06:55:44;;;;;;;6.88;1.95;;;;;;;38.72;11.85;100924.00;5131304;27;20210;-63
2023/06/12 06:58:12;;;;;;;3.83;1.42;;;;;;;38.60;12.18;100920.91;5127597;27;20233;-63
2023/06/12 07:00:40;;;;;;;4.03;1.42;;;;;;;38.38;11.71;100917.19;5125310;27;20207;-61
2023/06/12 07:03:09;;;;;;;4.53;1.63;;;;;;;38.43;12.28;100914.78;5113358;27;20223;-65
2023/06/12 07:05:38;;;;;;;5.13;1.50;;;;;;;38.43;12.33;100914.78;5124672;27;20619;-66
2023/06/12 07:08:08;;;;;;;3.72;1.88;;;;;;;38.52;11.17;100915.56;5125601;27;20264;-67
2023/06/12 07:10:37;;;;;;;2.58;1.45;;;;;;;38.92;11.01;100912.75;5125727;27;20199;-66
2023/06/12 07:13:04;;;;;;;6.45;1.55;;;;;;;39.03;10.67;100909.59;5128795;27;20211;-64
2023/06/12 07:15:33;;;;;;;1.40;1.20;;;;;;;38.31;9.93;100902.72;5128065;27;21571;-64
2023/06/12 07:18:01;;;;;;;2.00;1.40;;;;;;;37.99;10.73;100916.34;5128463;27;20211;-67
2023/06/12 07:20:29;;;;;;;3.42;1.23;;;;;;;37.66;10.80;100911.91;5125415;27;20211;-71
2023/06/12 07:22:57;;;;;;;3.97;1.40;;;;;;;37.11;10.45;100890.34;5127587;27;20566;-71
2023/06/12 07:25:27;;;;;;;5.72;1.33;;;;;;;36.92;10.77;100913.84;5125237;27;20229;-73
2023/06/12 07:27:55;;;;;;;1.05;1.00;;;;;;;36.65;10.65;100911.50;5129962;27;20204;-71
2023/06/12 07:30:23;;;;;;;1.52;1.02;;;;;;;35.71;10.12;100904.44;5125115;27;20256;-75
2023/06/12 07:32:51;;;;;;;3.83;1.15;;;;;;;35.36;11.10;100911.59;5123088;27;20211;-72
2023/06/12 07:35:20;;;;;;;3.80;0.98;;;;;;;35.49;11.01;100909.31;5131968;27;20204;-70
2023/06/12 07:37:49;;;;;;;4.35;1.42;;;;;;;34.54;11.36;100902.03;5127628;27;20235;-72
2023/06/12 07:40:18;;;;;;;2.47;1.13;;;;;;;34.66;11.58;100906.16;5132528;27;20560;-71
2023/06/12 07:42:48;;;;;;;7.43;1.38;;;;;;;34.73;11.54;100911.75;5128731;27;20249;-71
2023/06/12 07:45:16;;;;;;;3.20;1.38;;;;;;;33.91;11.81;100910.78;5130237;27;20202;-71
2023/06/12 07:47:45;;;;;;;1.48;1.20;;;;;;;32.13;12.51;100907.66;5123952;27;20195;-70
2023/06/12 07:50:14;;;;;;;3.08;1.38;;;;;;;30.05;13.81;100917.97;5132510;27;20198;-71
2023/06/12 07:52:42;;;;;;;1.85;1.20;;;;;;;28.33;15.95;100908.81;5122004;27;20200;-71
2023/06/12 07:55:10;;;;;;;1.52;1.33;;;;;;;27.01;17.52;100914.41;5130662;27;20205;-73
2023/06/12 07:57:39;;;;;;;1.75;1.00;;;;;;;25.74;18.70;100923.31;5126156;27;20207;-73
2023/06/12 08:00:09;;;;;;;5.00;1.45;;;;;;;24.95;19.35;100913.00;5126843;27;20313;-72
2023/06/12 08:02:38;;;;;;;2.72;1.48;;;;;;;24.47;19.94;100917.47;5128906;27;20212;-73
2023/06/12 08:05:07;;;;;;;3.35;0.98;;;;;;;24.11;19.51;100918.53;5125325;27;20203;-74
2023/06/12 08:07:36;;;;;;;4.30;1.45;;;;;;;23.82;20.22;100915.69;5132075;27;20559;-75
2023/06/12 08:10:07;;;;;;;6.05;1.30;;;;;;;23.70;20.28;100921.56;5128196;27;20255;-73
2023/06/12 08:12:35;;;;;;;2.83;1.25;;;;;;;23.43;20.25;100912.47;5128012;27;20199;-73
2023/06/12 08:15:04;;;;;;;3.75;1.10;;;;;;;23.18;20.21;100910.22;5128812;27;20207;-72
2023/06/12 08:17:35;;;;;;;2.05;1.30;;;;;;;22.91;20.77;100910.63;5137151;27;20195;-72
2023/06/12 08:20:05;;;;;;;4.05;1.50;;;;;;;22.71;21.15;100897.59;5127318;27;20239;-74
2023/06/12 08:22:33;;;;;;;2.08;1.40;;;;;;;22.60;21.18;100904.22;5131556;27;20207;-73
2023/06/12 08:25:01;;;;;;;2.97;1.38;;;;;;;22.56;21.48;100905.28;5129745;27;20234;-74
2023/06/12 08:27:29;;;;;;;3.72;1.33;;;;;;;22.51;21.59;100902.03;5126430;27;20207;-63
2023/06/12 08:29:57;;;;;;;3.03;1.58;;;;;;;22.45;21.87;100901.47;5128204;27;20207;-68
2023/06/12 08:32:25;;;;;;;2.00;1.10;;;;;;;22.47;21.86;100895.25;5130840;27;20205;-70
2023/06/12 08:34:55;;;;;;;3.70;1.27;;;;;;;22.31;21.83;100899.50;5126320;27;20291;-71
2023/06/12 08:37:23;;;;;;;1.60;1.25;;;;;;;22.30;21.77;100903.06;5127555;27;20190;-74
2023/06/12 08:39:51;;;;;;;2.50;1.40;;;;;;;22.32;22.16;100899.44;5131901;27;20615;-72
2023/06/12 08:42:21;;;;;;;3.05;1.17;;;;;;;22.06;22.42;100900.63;5134797;27;20284;-74
2023/06/12 08:44:53;;;;;;;2.08;1.30;;;;;;;22.01;23.01;100894.72;5127310;27;20207;-74
2023/06/12 08:47:34;;;;;;;2.33;1.13;;;;;;;22.09;23.17;100889.97;5122200;27;20290;-74
2023/06/12 08:50:05;;;;;;;1.52;1.35;;;;;;;22.20;23.06;100897.38;5122301;27;20231;-75
2023/06/12 08:52:34;;;;;;;2.35;1.20;;;;;;;22.31;23.03;100891.63;5135250;27;20199;-74
2023/06/12 08:55:03;;;;;;;1.40;1.30;;;;;;;22.48;23.00;100896.94;5126767;27;20194;-74
2023/06/12 08:57:32;;;;;;;2.65;1.35;;;;;;;22.52;22.84;100892.38;5128432;27;20207;-74
2023/06/12 09:00:00;;;;;;;2.97;1.48;;;;;;;22.54;22.80;100891.41;5120682;27;20211;-74
2023/06/12 09:02:29;;;;;;;1.50;1.10;;;;;;;22.51;23.40;100893.31;5121782;27;20327;-74
2023/06/12 09:05:02;;;;;;;3.28;1.30;;;;;;;22.47;23.61;100890.00;5128841;27;20203;-76
2023/06/12 09:07:37;;;;;;;3.20;1.60;;;;;;;22.54;23.67;100891.41;5123795;27;20593;-73
2023/06/12 09:10:06;;;;;;;4.35;1.38;;;;;;;22.63;23.61;100901.44;5124193;27;20198;-73
2023/06/12 09:12:43;;;;;;;2.65;1.13;;;;;;;22.78;23.61;100899.00;5121876;27;20203;-73
2023/06/12 09:15:17;;;;;;;2.90;1.40;;;;;;;22.83;23.53;100894.41;5123604;27;20199;-73
2023/06/12 09:17:47;;;;;;;3.17;1.35;;;;;;;22.79;23.49;100892.81;5122206;27;20560;-75
2023/06/12 09:20:17;;;;;;;1.63;1.20;;;;;;;22.81;23.96;100888.34;5129727;27;20266;-73
2023/06/12 09:23:05;;;;;;;1.52;1.42;;;;;;;22.89;23.95;100892.31;5125931;27;20284;-73
2023/06/12 09:25:37;;;;;;;2.65;1.65;;;;;;;22.90;23.71;100890.53;5126911;27;20309;-71
2023/06/12 09:28:07;;;;;;;1.73;1.38;;;;;;;22.81;23.70;100888.34;5124612;27;20195;-70
2023/06/12 09:30:39;;;;;;;4.50;2.00;;;;;;;22.62;23.79;100877.91;5123880;27;20210;-72
2023/06/12 09:33:08;;;;;;;4.47;1.40;;;;;;;22.65;24.16;100881.22;5126555;27;20649;-72
2023/06/12 09:35:50;;;;;;;4.45;1.38;;;;;;;22.72;23.72;100894.03;5122082;27;20624;-72
2023/06/12 09:38:28;;;;;;;4.45;1.40;;;;;;;22.72;22.68;100880.91;5124584;27;20562;-71
2023/06/12 09:40:57;;;;;;;2.05;1.27;;;;;;;22.78;23.06;100878.00;5120769;27;20240;-72
2023/06/12 09:43:26;;;;;;;2.17;1.35;;;;;;;22.89;23.30;100881.78;5121358;27;20211;-71
2023/06/12 09:45:57;;;;;;;1.63;1.25;;;;;;;22.85;23.31;100874.13;5119407;27;20203;-72
2023/06/12 09:48:32;;;;;;;4.45;1.42;;;;;;;22.93;23.63;100866.75;5121435;27;20286;-66
2023/06/12 09:51:05;;;;;;;1.73;1.50;;;;;;;22.90;23.58;100865.13;5122327;27;20571;-67
2023/06/12 09:53:39;;;;;;;2.50;1.42;;;;;;;22.88;23.50;100869.59;5122926;27;20211;-65
2023/06/12 09:56:09;;;;;;;3.22;1.27;;;;;;;22.76;22.48;100864.09;5123180;27;20209;-67
2023/06/12 09:58:39;;;;;;;5.93;1.63;;;;;;;22.61;22.62;100863.91;5122870;27;20604;-63
2023/06/12 10:01:08;;;;;;;2.40;1.30;;;;;;;22.54;22.96;100867.75;5127059;27;20198;-64
2023/06/12 10:03:39;;;;;;;5.45;1.65;;;;;;;22.81;23.21;100873.44;5127928;27;20573;-63
2023/06/12 10:06:09;;;;;;;2.10;1.25;;;;;;;23.11;23.23;100863.19;5128620;27;20198;-64
2023/06/12 10:08:40;;;;;;;1.38;1.27;;;;;;;23.45;22.66;100863.25;5132824;27;20558;-64
2023/06/12 10:11:09;;;;;;;1.75;1.30;;;;;;;23.89;22.41;100847.75;5127869;27;20234;-61
2023/06/12 10:13:38;;;;;;;2.75;1.27;;;;;;;24.53;21.18;100853.91;5127627;27;20284;-64
2023/06/12 10:16:07;;;;;;;2.13;1.30;;;;;;;25.28;20.87;100850.38;5134905;27;20592;-67
2023/06/12 10:18:36;;;;;;;5.25;1.67;;;;;;;26.31;19.31;100837.88;5119065;27;20195;-66
2023/06/12 10:21:07;;;;;;;2.90;1.60;;;;;;;27.05;18.11;100853.25;5125556;27;20204;-67
2023/06/12 10:23:38;;;;;;;3.85;1.42;;;;;;;27.94;16.33;100834.72;5127599;27;20238;-66
2023/06/12 10:26:06;;;;;;;2.15;1.35;;;;;;;28.52;16.11;100826.16;5123149;27;20242;-68
2023/06/12 10:28:35;;;;;;;2.38;1.23;;;;;;;29.51;15.09;100818.56;5128713;27;20207;-66
2023/06/12 10:31:13;;;;;;;6.38;1.40;;;;;;;30.64;14.87;100824.50;5129692;27;20203;-66
2023/06/12 10:34:05;;;;;;;1.00;1.00;;;;;;;31.33;13.80;100826.66;5129263;27;20195;-66
2023/06/12 10:36:41;;;;;;;1.58;1.27;;;;;;;31.39;14.56;100822.66;5128530;27;20576;-65
2023/06/12 10:39:24;;;;;;;4.72;1.40;;;;;;;31.80;13.92;100829.66;5126398;27;20648;-66
2023/06/12 10:41:54;;;;;;;1.58;1.48;;;;;;;32.83;13.10;100815.06;5130744;27;20206;-66
2023/06/12 10:44:36;;;;;;;4.35;1.30;;;;;;;33.60;12.66;100814.84;5122681;27;20216;-66
2023/06/12 10:47:05;;;;;;;3.33;1.90;;;;;;;34.77;12.08;100812.22;5128949;27;20195;-70
2023/06/12 10:49:58;;;;;;;2.15;1.40;;;;;;;35.86;11.36;100808.94;5130442;27;20278;-69
2023/06/12 10:52:27;;;;;;;4.05;1.50;;;;;;;34.73;11.32;100812.69;5128063;27;20195;-69
2023/06/12 10:55:31;;;;;;;1.20;1.10;;;;;;;31.90;13.25;100811.06;5129774;27;20210;-70
2023/06/12 10:58:00;;;;;;;6.03;1.58;;;;;;;30.70;14.55;100792.06;5131243;27;20678;-69
2023/06/12 11:00:31;;;;;;;1.75;1.38;;;;;;;30.30;15.16;100805.16;5134684;27;20756;-66
2023/06/12 11:03:01;;;;;;;1.98;1.23;;;;;;;29.27;15.48;100800.09;5136078;27;20202;-66
2023/06/12 11:05:30;;;;;;;2.85;1.40;;;;;;;29.41;15.69;100800.81;5132286;27;20211;-67
2023/06/12 11:08:00;;;;;;;1.42;1.30;;;;;;;30.54;15.07;100799.66;5136290;27;20239;-71
2023/06/12 11:10:31;;;;;;;2.20;1.20;;;;;;;32.12;13.91;100794.00;5124899;27;20206;-70
2023/06/12 11:13:00;;;;;;;6.93;1.33;;;;;;;33.52;12.71;100785.38;5133227;27;20199;-68
2023/06/12 11:15:28;;;;;;;4.53;1.77;;;;;;;34.09;11.96;100774.47;5129640;27;20219;-70
2023/06/12 11:17:56;;;;;;;1.67;1.50;;;;;;;33.06;11.93;100776.38;5132062;27;20285;-69
2023/06/12 11:20:25;;;;;;;3.15;1.38;;;;;;;31.84;13.18;100787.59;5135610;27;20255;-68
2023/06/12 11:23:00;;;;;;;2.20;1.50;;;;;;;32.35;13.40;100775.88;5132988;27;20207;-68
2023/06/12 11:25:32;;;;;;;2.85;1.40;;;;;;;32.13;13.50;100777.00;5125186;27;20231;-73
2023/06/12 11:28:02;;;;;;;1.70;1.45;;;;;;;30.54;14.18;100778.38;5132783;27;20242;-68
2023/06/12 11:30:30;;;;;;;4.22;1.38;;;;;;;30.07;15.01;100783.09;5129397;27;20203;-68
2023/06/12 11:33:07;;;;;;;3.38;1.55;;;;;;;30.42;14.32;100784.72;5128690;27;20210;-69
2023/06/12 11:35:40;;;;;;;1.60;1.50;;;;;;;30.72;14.64;100768.84;5134621;27;20207;-70
2023/06/12 11:38:09;;;;;;;5.20;1.77;;;;;;;31.56;13.41;100757.22;5131501;27;20199;-68